createdAt,value
2023-03-20T00:00:29.281Z,11.90
2023-03-20T00:05:32.431Z,11.56
2023-03-20T00:10:40.673Z,11.46
2023-03-20T00:15:44.668Z,11.59
2023-03-20T00:20:47.799Z,11.15
2023-03-20T00:25:50.642Z,11.28
2023-03-20T00:30:52.714Z,11.37
2023-03-20T00:35:54.875Z,11.39
2023-03-20T00:40:57.056Z,11.39
2023-03-20T00:45:59.226Z,11.01
2023-03-20T00:51:01.933Z,10.73
2023-03-20T00:56:04.781Z,10.68
2023-03-20T01:01:07.233Z,10.80
2023-03-20T01:06:10.221Z,10.71
2023-03-20T01:11:14.631Z,10.91
2023-03-20T01:16:25.625Z,10.91
2023-03-20T01:21:27.822Z,11.04
2023-03-20T01:26:36.959Z,10.67
2023-03-20T01:31:39.183Z,10.33
2023-03-20T01:36:49.494Z,10.37
2023-03-20T01:41:53.439Z,10.20
2023-03-20T01:46:55.900Z,10.48
2023-03-20T01:51:58.382Z,10.55
2023-03-20T01:57:01.555Z,10.68
2023-03-20T02:02:06.173Z,10.70
2023-03-20T02:07:11.341Z,10.72
2023-03-20T02:12:13.780Z,10.73
2023-03-20T02:17:16.444Z,10.56
2023-03-20T02:22:34.365Z,10.48
2023-03-20T02:28:08.489Z,10.33
2023-03-20T02:33:29.126Z,10.37
2023-03-20T02:38:49.584Z,10.42
2023-03-20T02:44:03.492Z,10.46
2023-03-20T02:49:40.805Z,10.62
2023-03-20T02:55:29.891Z,10.70
2023-03-20T03:00:39.941Z,10.57
2023-03-20T03:05:51.436Z,10.36
2023-03-20T03:10:58.384Z,10.10
2023-03-20T03:16:06.491Z,9.95
2023-03-20T03:21:11.398Z,9.85
2023-03-20T03:26:21.734Z,9.81
2023-03-20T03:31:26.376Z,9.58
2023-03-20T03:36:41.670Z,9.36
2023-03-20T03:41:52.577Z,9.47
2023-03-20T03:47:06.714Z,9.43
2023-03-20T03:52:23.346Z,9.30
2023-03-20T03:57:33.523Z,9.24
2023-03-20T04:02:36.416Z,9.20
2023-03-20T04:07:39.476Z,9.49
2023-03-20T04:12:45.269Z,9.65
2023-03-20T04:17:47.793Z,9.45
2023-03-20T04:22:50.080Z,9.45
2023-03-20T04:27:52.668Z,9.29
2023-03-20T04:32:54.744Z,9.22
2023-03-20T04:37:56.886Z,9.41
2023-03-20T04:42:59.062Z,9.09
2023-03-20T04:48:01.380Z,9.20
2023-03-20T04:53:03.524Z,9.14
2023-03-20T04:58:06.145Z,9.19
2023-03-20T05:03:09.219Z,9.19
2023-03-20T05:08:11.514Z,9.53
2023-03-20T05:13:14.269Z,9.29
2023-03-20T05:18:17.230Z,9.28
2023-03-20T05:23:20.257Z,9.40
2023-03-20T05:28:22.448Z,9.46
2023-03-20T05:33:24.653Z,9.73
2023-03-20T05:38:27.719Z,10.07
2023-03-20T05:43:30.309Z,10.20
2023-03-20T05:48:32.415Z,10.34
2023-03-20T05:53:35.189Z,10.51
2023-03-20T05:58:37.371Z,10.68
2023-03-20T06:03:39.571Z,10.78
2023-03-20T06:08:42.244Z,10.93
2023-03-20T06:13:44.417Z,10.96
2023-03-20T06:18:47.171Z,10.75
2023-03-20T06:23:49.394Z,11.16
2023-03-20T06:28:51.870Z,11.48
2023-03-20T06:33:54.090Z,11.70
2023-03-20T06:38:57.322Z,11.93
2023-03-20T06:44:00.047Z,12.07
2023-03-20T06:49:03.109Z,12.24
2023-03-20T06:54:06.050Z,12.64
2023-03-20T06:59:08.265Z,12.63
2023-03-20T07:04:11.050Z,12.87
2023-03-20T07:09:13.287Z,13.07
2023-03-20T07:14:15.905Z,13.13
2023-03-20T07:19:19.777Z,13.35
2023-03-20T07:24:22.295Z,12.72
2023-03-20T07:29:24.540Z,12.67
2023-03-20T07:34:27.067Z,13.05
2023-03-20T07:39:30.055Z,13.13
2023-03-20T07:44:33.017Z,13.62
2023-03-20T07:49:35.664Z,13.77
2023-03-20T07:54:37.801Z,14.09
2023-03-20T07:59:40.023Z,14.48
2023-03-20T08:04:43.864Z,14.60
2023-03-20T08:09:46.822Z,14.89
2023-03-20T08:14:49.063Z,15.27
2023-03-20T08:19:51.989Z,15.17
2023-03-20T08:24:54.135Z,15.07
2023-03-20T08:29:56.934Z,14.95
2023-03-20T08:35:00.005Z,15.07
2023-03-20T08:40:02.335Z,15.27
2023-03-20T08:45:05.137Z,15.56
2023-03-20T08:50:07.802Z,15.81
2023-03-20T08:55:12.362Z,15.91
2023-03-20T09:00:16.880Z,16.17
2023-03-20T09:05:19.341Z,16.15
2023-03-20T09:10:21.645Z,16.25
2023-03-20T09:15:23.815Z,16.42
2023-03-20T09:20:26.092Z,16.32
2023-03-20T09:25:28.260Z,16.42
2023-03-20T09:30:30.546Z,16.79
2023-03-20T09:35:32.785Z,17.01
2023-03-20T09:40:53.182Z,17.16
2023-03-20T09:46:20.900Z,17.28
2023-03-20T09:51:36.611Z,17.71
2023-03-20T09:56:38.988Z,17.94
2023-03-20T10:01:52.419Z,18.36
2023-03-20T10:06:55.803Z,18.48
2023-03-20T10:12:21.092Z,18.78
2023-03-20T10:17:39.283Z,19.00
2023-03-20T10:23:04.346Z,19.14
2023-03-20T10:28:23.550Z,19.16
2023-03-20T10:33:37.908Z,19.36
2023-03-20T10:38:58.116Z,19.31
2023-03-20T10:44:06.239Z,18.73
2023-03-20T10:49:20.157Z,19.32
2023-03-20T10:54:30.745Z,19.56
2023-03-20T10:59:39.241Z,19.76
2023-03-20T11:04:41.654Z,20.12
2023-03-20T11:09:43.926Z,20.39
2023-03-20T11:14:46.601Z,20.60
2023-03-20T11:19:51.838Z,20.58
2023-03-20T11:25:01.922Z,20.48
2023-03-20T11:30:07.889Z,20.52
2023-03-20T11:35:26.533Z,20.67
2023-03-20T11:40:33.794Z,20.86
2023-03-20T11:45:46.022Z,20.95
2023-03-20T11:50:57.314Z,21.17
2023-03-20T11:56:04.913Z,21.49
2023-03-20T12:01:13.513Z,21.65
2023-03-20T12:06:22.092Z,21.95
2023-03-20T12:11:48.236Z,22.01
2023-03-20T12:16:56.414Z,22.18
2023-03-20T12:22:22.628Z,22.43
2023-03-20T12:27:34.717Z,22.54
2023-03-20T12:32:43.671Z,22.51
2023-03-20T12:37:45.999Z,22.71
2023-03-20T12:42:58.320Z,22.81
2023-03-20T12:48:34.702Z,23.02
2023-03-20T12:54:04.384Z,22.98
2023-03-20T12:59:09.154Z,22.87
2023-03-20T13:04:25.697Z,22.99
2023-03-20T13:09:49.450Z,23.46
2023-03-20T13:14:55.200Z,23.45
2023-03-20T13:20:30.327Z,23.51
2023-03-20T13:25:57.853Z,23.84
2023-03-20T13:31:18.231Z,23.95
2023-03-20T13:36:58.827Z,24.08
2023-03-20T13:42:06.970Z,24.38
2023-03-20T13:47:22.378Z,24.60
2023-03-20T13:52:29.558Z,24.74
2023-03-20T13:58:07.614Z,24.87
2023-03-20T14:03:26.541Z,25.03
2023-03-20T14:08:28.624Z,24.94
2023-03-20T14:13:31.421Z,25.19
2023-03-20T14:18:33.752Z,25.46
2023-03-20T14:23:39.160Z,25.68
2023-03-20T14:28:58.312Z,25.85
2023-03-20T14:34:07.540Z,25.72
2023-03-20T14:39:38.672Z,25.90
2023-03-20T14:44:59.691Z,26.29
2023-03-20T14:50:02.005Z,26.44
2023-03-20T14:55:22.835Z,26.35
2023-03-20T15:00:33.820Z,26.38
2023-03-20T15:05:39.192Z,26.61
2023-03-20T15:10:54.521Z,26.33
2023-03-20T15:16:16.960Z,26.10
2023-03-20T15:21:39.300Z,26.07
2023-03-20T15:26:41.459Z,25.89
2023-03-20T15:31:43.714Z,25.22
2023-03-20T15:36:46.439Z,24.64
2023-03-20T15:41:59.307Z,24.15
2023-03-20T15:47:10.494Z,23.79
2023-03-20T15:52:22.198Z,23.51
2023-03-20T15:57:35.930Z,23.07
2023-03-20T16:02:38.400Z,22.68
2023-03-20T16:07:41.353Z,22.43
2023-03-20T16:12:52.271Z,22.19
2023-03-20T16:17:58.618Z,21.86
2023-03-20T16:23:04.369Z,21.59
2023-03-20T16:28:08.413Z,21.24
2023-03-20T16:33:16.222Z,21.04
2023-03-20T16:38:29.588Z,20.73
2023-03-20T16:43:32.716Z,20.32
2023-03-20T16:48:39.789Z,20.16
2023-03-20T16:53:46.669Z,19.91
2023-03-20T16:58:49.689Z,19.74
2023-03-20T17:03:57.361Z,19.57
2023-03-20T17:09:16.233Z,19.47
2023-03-20T17:14:18.821Z,19.27
2023-03-20T17:19:21.920Z,19.25
2023-03-20T17:24:24.126Z,19.27
2023-03-20T17:29:26.366Z,19.06
2023-03-20T17:34:29.061Z,18.78
2023-03-20T17:39:31.232Z,18.62
2023-03-20T17:44:33.559Z,18.48
2023-03-20T17:49:36.174Z,18.38
2023-03-20T17:54:38.305Z,18.33
2023-03-20T17:59:41.210Z,18.07
2023-03-20T18:04:43.434Z,17.99
2023-03-20T18:09:46.570Z,18.13
2023-03-20T18:14:48.729Z,18.06
2023-03-20T18:19:50.889Z,17.98
2023-03-20T18:24:53.218Z,17.75
2023-03-20T18:29:55.482Z,17.50
2023-03-20T18:34:57.694Z,17.64
2023-03-20T18:40:01.293Z,17.60
2023-03-20T18:45:03.571Z,17.36
2023-03-20T18:50:07.217Z,17.44
2023-03-20T18:55:09.593Z,17.43
2023-03-20T19:00:24.244Z,17.46
2023-03-20T19:05:28.217Z,17.31
2023-03-20T19:10:36.583Z,17.24
2023-03-20T19:15:39.109Z,17.22
2023-03-20T19:20:43.883Z,17.19
2023-03-20T19:25:48.706Z,17.14
2023-03-20T19:30:52.378Z,17.11
2023-03-20T19:36:02.947Z,17.01
2023-03-20T19:41:09.148Z,16.88
2023-03-20T19:46:28.509Z,17.08
2023-03-20T19:51:39.221Z,16.86
2023-03-20T19:56:41.404Z,16.91
2023-03-20T20:01:43.596Z,16.79
2023-03-20T20:06:47.524Z,16.82
2023-03-20T20:11:49.768Z,16.91
2023-03-20T20:16:53.826Z,16.81
2023-03-20T20:22:20.130Z,16.71
2023-03-20T20:27:19.186Z,16.47
2023-03-20T20:32:23.930Z,16.50
2023-03-20T20:38:10.362Z,16.63
2023-03-20T20:42:51.932Z,16.49
2023-03-20T20:47:55.560Z,16.38
2023-03-20T20:52:59.999Z,16.29
2023-03-20T20:58:05.007Z,16.13
2023-03-20T21:03:07.999Z,16.09
2023-03-20T21:08:10.402Z,16.04
2023-03-20T21:13:13.215Z,15.88
2023-03-20T21:18:15.508Z,15.80
2023-03-20T21:23:18.071Z,15.82
2023-03-20T21:28:20.648Z,15.58
2023-03-20T21:33:22.911Z,15.79
2023-03-20T21:43:48.386Z,15.65
2023-03-20T21:49:40.159Z,15.72
2023-03-20T22:11:19.983Z,15.65
2023-03-20T22:21:42.834Z,15.66
2023-03-20T22:27:18.696Z,15.57
2023-03-20T22:32:35.011Z,15.54
2023-03-20T22:43:15.084Z,15.41
2023-03-20T22:47:57.010Z,15.42
2023-03-20T22:52:59.215Z,15.50
2023-03-20T22:58:08.027Z,15.32
2023-03-20T23:03:22.317Z,15.34
2023-03-20T23:08:36.107Z,15.30
2023-03-20T23:13:41.920Z,15.35
2023-03-20T23:18:44.854Z,15.30
2023-03-20T23:23:47.086Z,15.03
2023-03-20T23:28:53.578Z,15.14
2023-03-20T23:33:57.775Z,15.21
2023-03-20T23:38:59.922Z,15.20
2023-03-20T23:44:02.474Z,15.08
2023-03-20T23:49:06.105Z,15.05
2023-03-20T23:54:08.307Z,15.00
